createdAt,value
2023-03-21T00:01:04.169Z,73.58
2023-03-21T00:03:34.914Z,74.48
2023-03-21T00:06:11.944Z,74.61
2023-03-21T00:08:40.634Z,74.42
2023-03-21T00:11:10.239Z,75.45
2023-03-21T00:13:43.356Z,76.02
2023-03-21T00:16:21.815Z,75.24
2023-03-21T00:18:59.490Z,74.89
2023-03-21T00:22:05.527Z,74.38
2023-03-21T00:24:19.970Z,74.34
2023-03-21T00:26:47.526Z,73.41
2023-03-21T00:29:14.993Z,72.90
2023-03-21T00:31:45.007Z,74.19
2023-03-21T00:36:41.134Z,76.20
2023-03-21T00:39:09.552Z,77.01
2023-03-21T00:41:44.318Z,78.73
2023-03-21T00:44:15.675Z,77.50
2023-03-21T00:46:54.514Z,77.63
2023-03-21T00:49:51.092Z,78.35
2023-03-21T00:52:27.572Z,78.33
2023-03-21T00:55:02.318Z,79.21
2023-03-21T00:57:38.537Z,79.97
2023-03-21T01:00:10.704Z,79.99
2023-03-21T01:02:43.420Z,80.73
2023-03-21T01:05:12.635Z,81.50
2023-03-21T01:07:40.191Z,82.82
2023-03-21T01:10:08.238Z,81.75
2023-03-21T01:12:35.808Z,81.44
2023-03-21T01:15:04.204Z,82.23
2023-03-21T01:17:31.667Z,81.86
2023-03-21T01:19:59.174Z,82.00
2023-03-21T01:22:26.712Z,80.90
2023-03-21T01:25:00.624Z,80.85
2023-03-21T01:27:33.412Z,80.56
2023-03-21T01:30:01.029Z,80.96
2023-03-21T01:32:28.516Z,80.73
2023-03-21T01:34:56.225Z,80.61
2023-03-21T01:37:26.327Z,80.45
2023-03-21T01:39:53.955Z,79.62
2023-03-21T01:42:21.465Z,80.24
2023-03-21T01:45:01.498Z,80.18
2023-03-21T01:47:37.526Z,79.56
2023-03-21T01:50:17.204Z,80.15
2023-03-21T01:52:54.979Z,80.08
2023-03-21T01:55:34.708Z,80.23
2023-03-21T01:58:14.150Z,80.01
2023-03-21T02:00:50.229Z,79.69
2023-03-21T02:03:50.571Z,79.90
2023-03-21T02:06:51.274Z,79.61
2023-03-21T02:09:34.951Z,79.63
2023-03-21T02:12:04.168Z,80.44
2023-03-21T02:14:36.625Z,81.07
2023-03-21T02:18:02.017Z,81.38
2023-03-21T02:21:18.691Z,80.92
2023-03-21T02:24:15.525Z,82.08
2023-03-21T02:27:11.888Z,82.96
2023-03-21T02:30:01.708Z,83.26
2023-03-21T02:33:02.990Z,84.18
2023-03-21T02:36:13.617Z,84.29
2023-03-21T02:39:07.981Z,84.20
2023-03-21T02:42:07.912Z,84.57
2023-03-21T02:44:43.364Z,84.55
2023-03-21T02:47:36.950Z,84.59
2023-03-21T02:50:30.820Z,84.74
2023-03-21T02:52:59.554Z,84.86
2023-03-21T02:55:33.209Z,84.09
2023-03-21T02:58:12.732Z,84.71
2023-03-21T03:00:47.443Z,84.87
2023-03-21T03:03:34.000Z,85.24
2023-03-21T03:06:09.876Z,85.64
2023-03-21T03:09:16.037Z,85.02
2023-03-21T03:11:45.552Z,85.23
2023-03-21T03:15:00.184Z,84.52
2023-03-21T03:18:22.517Z,86.34
2023-03-21T03:21:17.617Z,86.64
2023-03-21T03:23:55.282Z,85.96
2023-03-21T03:26:55.446Z,86.25
2023-03-21T03:29:26.720Z,86.06
2023-03-21T03:32:09.493Z,85.49
2023-03-21T03:34:49.701Z,86.23
2023-03-21T03:37:30.983Z,87.55
2023-03-21T03:40:10.947Z,88.56
2023-03-21T03:42:47.427Z,89.05
2023-03-21T03:45:33.539Z,87.74
2023-03-21T03:48:31.431Z,86.47
2023-03-21T03:51:08.015Z,87.98
2023-03-21T03:54:23.563Z,87.66
2023-03-21T03:56:52.306Z,87.16
2023-03-21T03:59:22.038Z,87.43
2023-03-21T04:02:09.817Z,85.49
2023-03-21T04:04:39.049Z,83.97
2023-03-21T04:07:07.785Z,86.82
2023-03-21T04:09:44.213Z,88.20
2023-03-21T04:12:15.607Z,86.78
2023-03-21T04:14:57.082Z,86.13
2023-03-21T04:17:29.481Z,88.19
2023-03-21T04:20:05.415Z,88.62
2023-03-21T04:22:39.855Z,89.50
2023-03-21T04:25:08.588Z,88.08
2023-03-21T04:27:36.446Z,87.70
2023-03-21T04:30:36.281Z,88.37
2023-03-21T04:33:09.557Z,88.58
2023-03-21T04:35:38.332Z,87.44
2023-03-21T04:38:07.601Z,87.07
2023-03-21T04:40:37.801Z,89.04
2023-03-21T04:43:08.062Z,89.30
2023-03-21T04:45:40.621Z,88.59
2023-03-21T04:48:33.112Z,89.44
2023-03-21T04:51:01.890Z,91.36
2023-03-21T04:53:29.701Z,92.10
2023-03-21T04:55:57.613Z,91.91
2023-03-21T04:58:26.719Z,92.48
2023-03-21T05:00:55.443Z,91.71
2023-03-21T05:03:23.467Z,90.77
2023-03-21T05:05:52.613Z,90.87
2023-03-21T05:08:20.559Z,91.77
2023-03-21T05:10:48.003Z,91.49
2023-03-21T05:13:15.837Z,90.65
2023-03-21T05:15:43.392Z,90.83
2023-03-21T05:18:11.174Z,89.81
2023-03-21T05:20:54.131Z,91.07
2023-03-21T05:23:23.306Z,91.41
2023-03-21T05:25:51.430Z,92.03
2023-03-21T05:28:40.077Z,92.06
2023-03-21T05:31:08.981Z,91.91
2023-03-21T05:33:36.916Z,91.37
2023-03-21T05:36:04.732Z,90.67
2023-03-21T05:38:33.220Z,90.30
2023-03-21T05:41:01.246Z,90.64
2023-03-21T05:43:29.499Z,91.21
2023-03-21T05:45:59.209Z,90.49
2023-03-21T05:48:30.146Z,89.80
2023-03-21T05:51:29.763Z,90.31
2023-03-21T05:53:57.343Z,90.18
2023-03-21T05:56:24.881Z,89.45
2023-03-21T05:58:57.346Z,89.13
2023-03-21T06:01:25.852Z,89.02
2023-03-21T06:04:09.494Z,88.71
2023-03-21T06:06:37.429Z,87.01
2023-03-21T06:09:06.635Z,86.55
2023-03-21T06:11:37.710Z,86.26
2023-03-21T06:14:22.253Z,86.19
2023-03-21T06:17:06.796Z,85.58
2023-03-21T06:19:38.361Z,85.50
2023-03-21T06:22:13.132Z,82.61
2023-03-21T06:24:42.065Z,81.53
2023-03-21T06:27:09.598Z,81.06
2023-03-21T06:29:53.333Z,80.76
2023-03-21T06:32:23.531Z,83.61
2023-03-21T06:34:56.255Z,80.89
2023-03-21T06:37:23.744Z,80.85
2023-03-21T06:39:51.610Z,78.65
2023-03-21T06:42:21.673Z,78.22
2023-03-21T06:44:49.250Z,79.38
2023-03-21T06:47:17.519Z,79.94
2023-03-21T06:49:46.760Z,80.89
2023-03-21T06:52:14.396Z,81.17
2023-03-21T06:54:42.767Z,80.55
2023-03-21T06:57:13.568Z,81.51
2023-03-21T06:59:42.045Z,82.10
2023-03-21T07:02:13.741Z,84.62
2023-03-21T07:04:47.333Z,81.15
2023-03-21T07:07:19.719Z,81.04
2023-03-21T07:09:47.528Z,80.49
2023-03-21T07:12:14.976Z,81.14
2023-03-21T07:15:12.358Z,79.59
2023-03-21T07:17:41.428Z,79.48
2023-03-21T07:20:09.909Z,79.50
2023-03-21T07:22:37.459Z,78.54
2023-03-21T07:25:07.929Z,79.87
2023-03-21T07:27:41.272Z,79.51
2023-03-21T07:30:11.127Z,80.03
2023-03-21T07:32:39.242Z,79.93
2023-03-21T07:35:15.354Z,79.88
2023-03-21T07:37:43.294Z,80.03
2023-03-21T07:40:13.840Z,79.06
2023-03-21T07:42:42.273Z,79.50
2023-03-21T07:45:16.508Z,79.60
2023-03-21T07:47:46.037Z,75.88
2023-03-21T07:50:14.416Z,76.85
2023-03-21T07:52:42.234Z,75.60
2023-03-21T07:55:10.528Z,76.28
2023-03-21T07:57:38.224Z,75.22
2023-03-21T08:00:07.246Z,74.82
2023-03-21T08:02:58.895Z,76.20
2023-03-21T08:05:38.406Z,75.69
2023-03-21T08:08:07.472Z,73.42
2023-03-21T08:10:35.972Z,74.36
2023-03-21T08:13:04.237Z,72.68
2023-03-21T08:15:33.153Z,73.43
2023-03-21T08:18:01.500Z,74.13
2023-03-21T08:20:29.343Z,72.97
2023-03-21T08:22:56.829Z,68.35
2023-03-21T08:25:24.548Z,72.34
2023-03-21T08:27:52.467Z,71.18
2023-03-21T08:30:24.198Z,70.21
2023-03-21T08:32:52.228Z,71.24
2023-03-21T08:35:21.186Z,70.69
2023-03-21T08:37:48.842Z,69.33
2023-03-21T08:40:18.723Z,67.94
2023-03-21T08:42:47.171Z,66.04
2023-03-21T08:45:18.553Z,64.74
2023-03-21T08:47:47.255Z,69.82
2023-03-21T08:50:20.852Z,67.82
2023-03-21T08:52:49.371Z,67.13
2023-03-21T08:55:18.668Z,68.08
2023-03-21T08:57:47.024Z,65.51
2023-03-21T09:00:18.213Z,65.29
2023-03-21T09:02:48.568Z,66.81
2023-03-21T09:05:17.032Z,67.32
2023-03-21T09:07:45.887Z,67.63
2023-03-21T09:10:21.093Z,65.40
2023-03-21T09:12:51.768Z,64.14
2023-03-21T09:15:22.025Z,66.06
2023-03-21T09:17:53.201Z,67.88
2023-03-21T09:20:30.012Z,66.75
2023-03-21T09:22:58.343Z,66.97
2023-03-21T09:25:29.580Z,67.64
2023-03-21T09:28:02.465Z,66.96
2023-03-21T09:30:30.218Z,67.16
2023-03-21T09:32:59.317Z,66.61
2023-03-21T09:35:28.359Z,66.68
2023-03-21T09:37:59.507Z,66.76
2023-03-21T09:41:01.183Z,65.38
2023-03-21T09:43:59.653Z,64.97
2023-03-21T09:46:51.887Z,64.96
2023-03-21T09:50:14.647Z,64.74
2023-03-21T09:52:56.878Z,65.30
2023-03-21T09:55:35.130Z,66.24
2023-03-21T09:58:16.166Z,66.15
2023-03-21T10:00:49.462Z,64.67
2023-03-21T10:03:24.496Z,64.26
2023-03-21T10:06:01.263Z,62.91
2023-03-21T10:08:36.635Z,62.99
2023-03-21T10:11:27.407Z,58.98
2023-03-21T10:14:05.706Z,55.44
2023-03-21T10:16:47.145Z,57.96
2023-03-21T10:19:20.973Z,59.77
2023-03-21T10:22:06.171Z,59.30
2023-03-21T10:24:35.490Z,58.00
2023-03-21T10:27:05.054Z,56.29
2023-03-21T10:29:44.776Z,56.43
2023-03-21T10:32:18.671Z,56.53
2023-03-21T10:37:25.887Z,52.52
2023-03-21T10:39:56.058Z,53.18
2023-03-21T10:42:33.887Z,53.31
2023-03-21T10:45:01.848Z,54.16
2023-03-21T10:47:34.169Z,54.14
2023-03-21T10:50:14.237Z,53.75
2023-03-21T10:52:51.975Z,52.10
2023-03-21T10:55:33.936Z,52.38
2023-03-21T10:58:18.972Z,54.38
2023-03-21T11:00:49.836Z,54.37
2023-03-21T11:03:32.790Z,55.66
2023-03-21T11:06:36.648Z,55.08
2023-03-21T11:09:21.686Z,54.50
2023-03-21T11:12:09.826Z,53.77
2023-03-21T11:14:43.588Z,52.50
2023-03-21T11:17:27.727Z,52.14
2023-03-21T11:20:00.591Z,52.70
2023-03-21T11:22:37.412Z,53.27
2023-03-21T11:25:12.118Z,53.56
2023-03-21T11:27:52.904Z,52.69
2023-03-21T11:30:28.701Z,52.19
2023-03-21T11:32:59.884Z,52.23
2023-03-21T11:35:37.088Z,52.24
2023-03-21T11:38:07.468Z,52.93
2023-03-21T11:40:37.166Z,51.04
2023-03-21T11:43:31.986Z,50.88
2023-03-21T11:46:06.547Z,51.06
2023-03-21T11:48:48.914Z,50.63
2023-03-21T11:51:31.025Z,50.54
2023-03-21T11:54:15.924Z,51.68
2023-03-21T11:56:49.487Z,51.71
2023-03-21T11:59:17.332Z,50.29
2023-03-21T12:02:40.116Z,52.00
2023-03-21T12:05:27.839Z,50.85
2023-03-21T12:08:10.204Z,51.10
2023-03-21T12:10:46.311Z,52.03
2023-03-21T12:13:50.426Z,54.23
2023-03-21T12:16:35.098Z,53.61
2023-03-21T12:19:41.810Z,52.71
2023-03-21T12:22:58.032Z,53.25
2023-03-21T12:25:54.747Z,53.10
2023-03-21T12:28:41.462Z,54.43
2023-03-21T12:31:44.789Z,53.05
2023-03-21T12:35:06.013Z,55.17
2023-03-21T12:38:17.445Z,56.32
2023-03-21T12:41:09.995Z,55.24
2023-03-21T13:01:12.782Z,56.65
2023-03-21T13:03:45.586Z,55.48
2023-03-21T13:06:18.552Z,54.53
2023-03-21T13:09:03.590Z,54.87
2023-03-21T13:11:32.726Z,53.96
2023-03-21T13:14:06.371Z,54.46
2023-03-21T13:17:06.712Z,54.94
2023-03-21T13:19:38.843Z,55.33
2023-03-21T13:22:30.309Z,56.06
2023-03-21T13:25:25.560Z,56.04
2023-03-21T13:28:01.182Z,54.71
2023-03-21T13:30:32.478Z,55.51
2023-03-21T13:33:17.248Z,56.18
2023-03-21T13:35:46.669Z,55.86
2023-03-21T13:38:26.925Z,56.50
2023-03-21T13:41:07.684Z,58.72
2023-03-21T13:43:44.281Z,55.50
2023-03-21T13:46:26.852Z,55.93
2023-03-21T13:49:00.151Z,58.10
2023-03-21T13:51:37.453Z,58.05
2023-03-21T13:54:18.260Z,60.10
2023-03-21T13:56:48.959Z,61.38
2023-03-21T13:59:45.608Z,62.29
2023-03-21T14:02:22.997Z,62.09
2023-03-21T14:05:06.855Z,62.74
2023-03-21T14:07:44.856Z,61.45
2023-03-21T14:10:43.732Z,61.84
2023-03-21T14:13:17.931Z,61.99
2023-03-21T14:15:55.854Z,62.21
2023-03-21T14:18:47.830Z,61.87
2023-03-21T14:21:31.340Z,61.87
2023-03-21T14:24:06.068Z,63.07
2023-03-21T14:26:46.297Z,64.18
2023-03-21T14:29:31.959Z,63.51
2023-03-21T14:32:00.783Z,63.93
2023-03-21T14:34:31.643Z,63.86
2023-03-21T14:36:59.494Z,63.95
2023-03-21T14:39:33.836Z,64.35
2023-03-21T14:42:06.768Z,64.82
2023-03-21T14:44:56.777Z,65.01
2023-03-21T14:47:30.036Z,64.26
2023-03-21T14:50:01.074Z,63.60
2023-03-21T14:52:34.271Z,62.36
2023-03-21T14:55:05.921Z,63.28
2023-03-21T14:57:34.024Z,63.61
2023-03-21T15:00:16.027Z,63.36
2023-03-21T15:02:47.306Z,63.39
2023-03-21T15:05:38.577Z,62.43
2023-03-21T15:08:12.835Z,63.70
2023-03-21T15:10:41.506Z,66.32
2023-03-21T15:13:32.065Z,68.93
2023-03-21T15:16:00.954Z,69.13
2023-03-21T15:18:34.911Z,67.70
2023-03-21T15:21:19.728Z,66.27
2023-03-21T15:23:50.630Z,65.08
2023-03-21T15:26:22.749Z,66.11
2023-03-21T15:28:58.336Z,65.88
2023-03-21T15:31:34.468Z,67.03
2023-03-21T15:34:02.348Z,68.11
2023-03-21T15:36:40.296Z,68.28
2023-03-21T15:39:16.372Z,67.84
2023-03-21T15:42:03.038Z,66.74
2023-03-21T15:44:35.154Z,66.55
2023-03-21T15:47:03.057Z,66.37
2023-03-21T15:49:38.237Z,66.80
2023-03-21T15:52:15.784Z,65.87
2023-03-21T15:54:50.982Z,65.70
2023-03-21T15:57:32.869Z,66.89
2023-03-21T16:00:21.615Z,67.52
2023-03-21T16:02:59.314Z,66.41
2023-03-21T16:05:30.812Z,65.75
2023-03-21T16:08:21.655Z,64.62
2023-03-21T16:10:49.567Z,65.85
2023-03-21T16:13:17.584Z,65.64
2023-03-21T16:15:46.997Z,66.45
2023-03-21T16:18:20.882Z,64.06
2023-03-21T16:20:50.140Z,66.35
2023-03-21T16:23:18.010Z,67.66
2023-03-21T16:25:45.914Z,68.96
2023-03-21T16:28:16.621Z,69.87
2023-03-21T16:30:44.844Z,69.13
2023-03-21T16:33:15.649Z,64.91
2023-03-21T16:35:43.860Z,67.00
2023-03-21T16:38:13.892Z,68.54
2023-03-21T16:40:43.852Z,68.13
2023-03-21T16:43:12.229Z,68.10
2023-03-21T16:45:39.952Z,68.22
2023-03-21T16:48:09.097Z,69.63
2023-03-21T16:50:57.012Z,71.72
2023-03-21T16:53:24.732Z,72.63
2023-03-21T16:55:54.542Z,72.91
2023-03-21T16:58:23.644Z,72.39
2023-03-21T17:00:51.085Z,73.07
2023-03-21T17:03:19.383Z,73.64
2023-03-21T17:05:48.178Z,73.69
2023-03-21T17:08:18.786Z,73.50
2023-03-21T17:10:52.031Z,73.51
2023-03-21T17:13:21.094Z,73.19
2023-03-21T17:15:49.481Z,72.90
2023-03-21T17:18:17.450Z,72.51
2023-03-21T17:20:47.861Z,72.33
2023-03-21T17:23:15.892Z,72.43
2023-03-21T17:25:46.208Z,72.49
2023-03-21T17:28:15.277Z,73.11
2023-03-21T17:30:43.275Z,72.71
2023-03-21T17:33:11.075Z,71.94
2023-03-21T17:35:41.997Z,71.63
2023-03-21T17:38:16.848Z,71.09
2023-03-21T17:40:49.632Z,70.71
2023-03-21T17:43:23.561Z,70.33
2023-03-21T17:45:54.593Z,70.41
2023-03-21T17:48:23.582Z,71.67
2023-03-21T17:50:56.679Z,71.74
2023-03-21T17:53:26.960Z,72.69
2023-03-21T17:55:54.572Z,73.59
2023-03-21T17:58:22.236Z,73.84
2023-03-21T18:00:51.048Z,73.88
2023-03-21T18:03:19.774Z,73.81
2023-03-21T18:06:07.904Z,74.46
2023-03-21T18:08:56.288Z,74.85
2023-03-21T18:11:25.809Z,74.89
2023-03-21T18:14:06.483Z,75.57
2023-03-21T18:16:40.870Z,75.88
2023-03-21T18:19:11.366Z,76.66
2023-03-21T18:21:46.927Z,76.51
2023-03-21T18:24:15.858Z,76.79
2023-03-21T18:26:45.976Z,76.90
2023-03-21T18:30:17.539Z,77.10
2023-03-21T18:32:08.210Z,76.43
2023-03-21T18:34:39.001Z,76.63
2023-03-21T18:37:08.572Z,76.36
2023-03-21T18:39:38.170Z,76.41
2023-03-21T18:42:07.081Z,76.04
2023-03-21T18:44:45.599Z,76.60
2023-03-21T18:47:14.596Z,76.39
2023-03-21T18:50:13.194Z,76.72
2023-03-21T18:52:32.029Z,77.18
2023-03-21T18:55:00.597Z,77.97
2023-03-21T18:57:48.700Z,78.43
2023-03-21T19:00:19.938Z,78.76
2023-03-21T19:03:04.012Z,79.41
2023-03-21T19:05:42.335Z,79.49
2023-03-21T19:08:12.460Z,80.37
2023-03-21T19:10:43.044Z,80.64
2023-03-21T19:13:12.395Z,80.56
2023-03-21T19:15:41.326Z,81.20
2023-03-21T19:18:37.903Z,81.52
2023-03-21T19:21:06.652Z,81.22
2023-03-21T19:24:03.814Z,81.49
2023-03-21T19:26:43.168Z,82.63
2023-03-21T19:29:31.237Z,82.45
2023-03-21T19:31:58.912Z,83.32
2023-03-21T19:34:28.252Z,84.19
2023-03-21T19:36:57.802Z,84.99
2023-03-21T19:39:25.736Z,85.88
2023-03-21T19:42:09.003Z,87.11
2023-03-21T19:44:43.051Z,88.51
2023-03-21T19:47:11.363Z,88.91
2023-03-21T19:50:20.884Z,89.60
2023-03-21T19:52:31.996Z,90.25
2023-03-21T19:54:59.636Z,91.14
2023-03-21T19:57:28.669Z,91.85
2023-03-21T19:59:59.368Z,91.24
2023-03-21T20:02:37.502Z,90.85
2023-03-21T20:05:09.726Z,90.72
2023-03-21T20:07:57.551Z,90.49
2023-03-21T20:10:46.055Z,88.46
2023-03-21T20:13:14.248Z,88.10
2023-03-21T20:15:48.082Z,87.36
2023-03-21T20:18:16.418Z,85.96
2023-03-21T20:20:45.274Z,86.61
2023-03-21T20:23:36.358Z,87.33
2023-03-21T20:26:10.606Z,87.21
2023-03-21T20:28:54.894Z,87.05
2023-03-21T20:31:28.455Z,86.52
2023-03-21T20:33:57.503Z,85.18
2023-03-21T20:36:43.086Z,86.05
2023-03-21T20:39:14.312Z,86.16
2023-03-21T20:41:42.683Z,85.19
2023-03-21T20:47:00.526Z,86.55
2023-03-21T20:49:28.699Z,86.86
2023-03-21T20:54:45.785Z,88.00
2023-03-21T20:57:14.597Z,87.84
2023-03-21T20:59:43.848Z,87.87
2023-03-21T21:02:12.616Z,88.44
2023-03-21T21:05:00.007Z,88.54
2023-03-21T21:07:29.857Z,86.97
2023-03-21T21:09:57.903Z,86.65
2023-03-21T21:12:27.776Z,86.98
2023-03-21T21:15:02.626Z,87.19
2023-03-21T21:17:57.895Z,88.08
2023-03-21T21:20:20.506Z,88.36
2023-03-21T21:22:59.734Z,88.76
2023-03-21T21:25:30.587Z,88.68
2023-03-21T21:27:58.521Z,88.26
2023-03-21T21:30:29.537Z,87.33
2023-03-21T21:33:00.827Z,84.30
2023-03-21T21:35:30.015Z,87.65
2023-03-21T21:37:57.484Z,90.91
2023-03-21T21:40:25.716Z,93.17
2023-03-21T21:42:53.251Z,95.72
2023-03-21T21:45:21.487Z,96.16
2023-03-21T21:47:48.984Z,96.02
2023-03-21T21:50:16.538Z,96.97
2023-03-21T21:52:52.581Z,97.96
2023-03-21T21:55:21.676Z,99.32
2023-03-21T21:57:52.923Z,99.19
2023-03-21T22:00:23.595Z,98.36
2023-03-21T22:02:53.695Z,93.95
2023-03-21T22:05:21.738Z,95.50
2023-03-21T22:07:54.580Z,96.75
2023-03-21T22:10:27.619Z,96.37
2023-03-21T22:12:55.976Z,97.67
2023-03-21T22:15:24.023Z,98.02
2023-03-21T22:17:53.308Z,98.41
2023-03-21T22:20:23.172Z,98.97
2023-03-21T22:22:51.037Z,98.97
2023-03-21T22:25:21.770Z,96.73
2023-03-21T22:27:50.871Z,97.88
2023-03-21T22:30:21.819Z,98.14
2023-03-21T22:33:06.192Z,99.10
2023-03-21T22:35:38.058Z,100.00
2023-03-21T22:38:05.871Z,99.73
2023-03-21T22:40:33.403Z,100.00
2023-03-21T22:43:00.926Z,100.00
2023-03-21T22:45:28.527Z,100.00
2023-03-21T22:47:56.309Z,100.00
2023-03-21T22:50:23.790Z,100.00
2023-03-21T22:52:51.304Z,100.00
2023-03-21T22:55:19.324Z,100.00
2023-03-21T22:57:46.926Z,99.20
2023-03-21T23:00:16.261Z,97.56
2023-03-21T23:02:43.823Z,97.57
2023-03-21T23:05:12.828Z,99.91
2023-03-21T23:07:40.598Z,100.00
2023-03-21T23:10:12.120Z,100.00
2023-03-21T23:12:39.829Z,99.25
2023-03-21T23:15:09.359Z,99.49
2023-03-21T23:17:37.018Z,100.00
2023-03-21T23:20:07.853Z,100.00
2023-03-21T23:22:36.209Z,98.94
2023-03-21T23:25:04.052Z,95.95
2023-03-21T23:27:31.654Z,95.05
2023-03-21T23:29:59.155Z,95.86
2023-03-21T23:32:26.730Z,93.86
2023-03-21T23:34:56.064Z,93.43
2023-03-21T23:37:25.175Z,94.57
2023-03-21T23:39:55.216Z,98.75
2023-03-21T23:42:25.477Z,100.00
2023-03-21T23:44:53.013Z,100.00
2023-03-21T23:47:20.824Z,100.00
2023-03-21T23:49:50.162Z,100.00
2023-03-21T23:52:17.704Z,96.55
2023-03-21T23:54:45.307Z,98.47
2023-03-21T23:57:12.775Z,99.96
2023-03-21T23:59:40.263Z,98.79
